sensor_id;sensor_type;location;lat;lon;timestamp;P1;durP1;ratioP1;P2;durP2;ratioP2
10719;SDS011;5411;58.386;15.560;2022-11-20T00:01:51;4.93;;;4.23;;
10719;SDS011;5411;58.386;15.560;2022-11-20T00:04:19;3.60;;;3.30;;
10719;SDS011;5411;58.386;15.560;2022-11-20T00:06:47;4.30;;;3.10;;
10719;SDS011;5411;58.386;15.560;2022-11-20T00:09:15;3.73;;;3.30;;
10719;SDS011;5411;58.386;15.560;2022-11-20T00:11:46;6.43;;;3.80;;
10719;SDS011;5411;58.386;15.560;2022-11-20T00:14:17;5.47;;;4.20;;
10719;SDS011;5411;58.386;15.560;2022-11-20T00:16:45;3.50;;;3.20;;
10719;SDS011;5411;58.386;15.560;2022-11-20T00:19:15;3.53;;;3.23;;
10719;SDS011;5411;58.386;15.560;2022-11-20T00:21:44;3.80;;;3.20;;
10719;SDS011;5411;58.386;15.560;2022-11-20T00:24:11;3.40;;;3.10;;
10719;SDS011;5411;58.386;15.560;2022-11-20T00:26:39;3.93;;;3.57;;
10719;SDS011;5411;58.386;15.560;2022-11-20T00:29:08;3.97;;;3.47;;
10719;SDS011;5411;58.386;15.560;2022-11-20T00:31:36;4.67;;;3.70;;
10719;SDS011;5411;58.386;15.560;2022-11-20T00:34:04;3.50;;;3.10;;
10719;SDS011;5411;58.386;15.560;2022-11-20T00:36:34;4.10;;;3.70;;
10719;SDS011;5411;58.386;15.560;2022-11-20T00:39:03;5.70;;;4.53;;
10719;SDS011;5411;58.386;15.560;2022-11-20T00:41:31;5.73;;;3.70;;
10719;SDS011;5411;58.386;15.560;2022-11-20T00:43:59;4.07;;;3.67;;
10719;SDS011;5411;58.386;15.560;2022-11-20T00:46:28;4.20;;;3.80;;
10719;SDS011;5411;58.386;15.560;2022-11-20T00:48:56;3.87;;;3.47;;
10719;SDS011;5411;58.386;15.560;2022-11-20T00:51:26;4.27;;;3.30;;
10719;SDS011;5411;58.386;15.560;2022-11-20T00:53:56;4.37;;;3.40;;
10719;SDS011;5411;58.386;15.560;2022-11-20T00:56:26;3.27;;;2.90;;
10719;SDS011;5411;58.386;15.560;2022-11-20T00:58:54;3.37;;;2.80;;
10719;SDS011;5411;58.386;15.560;2022-11-20T01:01:24;3.13;;;2.73;;
10719;SDS011;5411;58.386;15.560;2022-11-20T01:03:56;2.80;;;2.50;;
10719;SDS011;5411;58.386;15.560;2022-11-20T01:06:28;3.33;;;3.03;;
10719;SDS011;5411;58.386;15.560;2022-11-20T01:08:59;3.97;;;3.23;;
10719;SDS011;5411;58.386;15.560;2022-11-20T01:11:30;3.53;;;3.20;;
10719;SDS011;5411;58.386;15.560;2022-11-20T01:13:59;3.57;;;3.10;;
10719;SDS011;5411;58.386;15.560;2022-11-20T01:16:29;3.30;;;3.00;;
10719;SDS011;5411;58.386;15.560;2022-11-20T01:18:59;3.60;;;3.30;;
10719;SDS011;5411;58.386;15.560;2022-11-20T01:21:29;3.00;;;2.70;;
10719;SDS011;5411;58.386;15.560;2022-11-20T01:24:00;3.20;;;2.90;;
10719;SDS011;5411;58.386;15.560;2022-11-20T01:26:30;2.43;;;2.23;;
10719;SDS011;5411;58.386;15.560;2022-11-20T01:29:00;2.40;;;2.20;;
10719;SDS011;5411;58.386;15.560;2022-11-20T01:31:30;3.43;;;3.10;;
10719;SDS011;5411;58.386;15.560;2022-11-20T01:34:00;4.27;;;2.93;;
10719;SDS011;5411;58.386;15.560;2022-11-20T01:36:30;3.57;;;2.50;;
10719;SDS011;5411;58.386;15.560;2022-11-20T01:39:02;3.07;;;2.77;;
10719;SDS011;5411;58.386;15.560;2022-11-20T01:41:33;3.30;;;3.00;;
10719;SDS011;5411;58.386;15.560;2022-11-20T01:44:20;3.07;;;2.60;;
10719;SDS011;5411;58.386;15.560;2022-11-20T01:46:52;3.10;;;2.80;;
10719;SDS011;5411;58.386;15.560;2022-11-20T01:49:26;2.63;;;2.43;;
10719;SDS011;5411;58.386;15.560;2022-11-20T01:52:03;3.97;;;3.20;;
10719;SDS011;5411;58.386;15.560;2022-11-20T01:54:38;3.00;;;2.80;;
10719;SDS011;5411;58.386;15.560;2022-11-20T01:57:10;2.50;;;2.30;;
10719;SDS011;5411;58.386;15.560;2022-11-20T01:59:41;2.27;;;2.07;;
10719;SDS011;5411;58.386;15.560;2022-11-20T02:02:15;3.33;;;2.67;;
10719;SDS011;5411;58.386;15.560;2022-11-20T02:04:43;2.63;;;2.43;;
10719;SDS011;5411;58.386;15.560;2022-11-20T02:07:11;3.43;;;2.50;;
10719;SDS011;5411;58.386;15.560;2022-11-20T02:09:42;2.30;;;2.10;;
10719;SDS011;5411;58.386;15.560;2022-11-20T02:12:10;2.13;;;1.93;;
10719;SDS011;5411;58.386;15.560;2022-11-20T02:14:58;2.63;;;2.03;;
10719;SDS011;5411;58.386;15.560;2022-11-20T02:17:25;2.23;;;2.03;;
10719;SDS011;5411;58.386;15.560;2022-11-20T02:19:54;1.57;;;1.47;;
10719;SDS011;5411;58.386;15.560;2022-11-20T02:22:23;2.40;;;2.20;;
10719;SDS011;5411;58.386;15.560;2022-11-20T02:25:00;2.63;;;2.13;;
10719;SDS011;5411;58.386;15.560;2022-11-20T02:27:29;2.30;;;2.20;;
10719;SDS011;5411;58.386;15.560;2022-11-20T02:29:59;4.00;;;2.67;;
10719;SDS011;5411;58.386;15.560;2022-11-20T02:32:30;2.57;;;2.20;;
10719;SDS011;5411;58.386;15.560;2022-11-20T02:35:05;3.07;;;2.30;;
10719;SDS011;5411;58.386;15.560;2022-11-20T02:37:36;2.70;;;2.23;;
10719;SDS011;5411;58.386;15.560;2022-11-20T02:40:10;2.17;;;2.03;;
10719;SDS011;5411;58.386;15.560;2022-11-20T02:42:39;2.10;;;2.00;;
10719;SDS011;5411;58.386;15.560;2022-11-20T02:45:08;2.17;;;1.80;;
10719;SDS011;5411;58.386;15.560;2022-11-20T02:47:37;2.57;;;2.20;;
10719;SDS011;5411;58.386;15.560;2022-11-20T02:50:14;2.77;;;2.57;;
10719;SDS011;5411;58.386;15.560;2022-11-20T02:52:42;2.20;;;2.00;;
10719;SDS011;5411;58.386;15.560;2022-11-20T02:55:12;3.27;;;2.00;;
10719;SDS011;5411;58.386;15.560;2022-11-20T02:57:40;1.93;;;1.80;;
10719;SDS011;5411;58.386;15.560;2022-11-20T03:00:08;3.07;;;2.20;;
10719;SDS011;5411;58.386;15.560;2022-11-20T03:02:37;1.90;;;1.70;;
10719;SDS011;5411;58.386;15.560;2022-11-20T03:05:05;3.07;;;2.53;;
10719;SDS011;5411;58.386;15.560;2022-11-20T03:07:34;2.40;;;2.20;;
10719;SDS011;5411;58.386;15.560;2022-11-20T03:10:02;2.50;;;2.27;;
10719;SDS011;5411;58.386;15.560;2022-11-20T03:12:33;2.13;;;1.87;;
10719;SDS011;5411;58.386;15.560;2022-11-20T03:15:01;1.80;;;1.70;;
10719;SDS011;5411;58.386;15.560;2022-11-20T03:17:29;2.10;;;1.80;;
10719;SDS011;5411;58.386;15.560;2022-11-20T03:19:58;2.23;;;2.03;;
10719;SDS011;5411;58.386;15.560;2022-11-20T03:22:27;2.07;;;1.87;;
10719;SDS011;5411;58.386;15.560;2022-11-20T03:24:56;2.40;;;2.20;;
10719;SDS011;5411;58.386;15.560;2022-11-20T03:27:24;2.50;;;1.77;;
10719;SDS011;5411;58.386;15.560;2022-11-20T03:29:53;2.73;;;1.77;;
10719;SDS011;5411;58.386;15.560;2022-11-20T03:32:21;2.43;;;1.93;;
10719;SDS011;5411;58.386;15.560;2022-11-20T03:34:49;1.93;;;1.77;;
10719;SDS011;5411;58.386;15.560;2022-11-20T03:37:18;2.13;;;1.93;;
10719;SDS011;5411;58.386;15.560;2022-11-20T03:39:46;1.80;;;1.70;;
10719;SDS011;5411;58.386;15.560;2022-11-20T03:42:14;2.30;;;1.80;;
10719;SDS011;5411;58.386;15.560;2022-11-20T03:44:57;2.83;;;1.70;;
10719;SDS011;5411;58.386;15.560;2022-11-20T03:47:25;2.17;;;1.90;;
10719;SDS011;5411;58.386;15.560;2022-11-20T03:49:53;1.90;;;1.80;;
10719;SDS011;5411;58.386;15.560;2022-11-20T03:52:21;2.23;;;2.07;;
10719;SDS011;5411;58.386;15.560;2022-11-20T03:54:49;2.37;;;1.90;;
10719;SDS011;5411;58.386;15.560;2022-11-20T03:57:17;2.07;;;1.80;;
10719;SDS011;5411;58.386;15.560;2022-11-20T03:59:45;2.17;;;1.97;;
10719;SDS011;5411;58.386;15.560;2022-11-20T04:02:15;2.23;;;2.03;;
10719;SDS011;5411;58.386;15.560;2022-11-20T04:04:43;2.70;;;1.60;;
10719;SDS011;5411;58.386;15.560;2022-11-20T04:07:11;2.17;;;1.97;;
10719;SDS011;5411;58.386;15.560;2022-11-20T04:09:39;2.50;;;2.10;;
10719;SDS011;5411;58.386;15.560;2022-11-20T04:12:07;1.60;;;1.50;;
10719;SDS011;5411;58.386;15.560;2022-11-20T04:14:37;4.17;;;1.97;;
10719;SDS011;5411;58.386;15.560;2022-11-20T04:17:05;1.80;;;1.70;;
10719;SDS011;5411;58.386;15.560;2022-11-20T04:19:34;2.13;;;2.03;;
10719;SDS011;5411;58.386;15.560;2022-11-20T04:22:02;2.40;;;2.20;;
10719;SDS011;5411;58.386;15.560;2022-11-20T04:24:31;2.63;;;2.10;;
10719;SDS011;5411;58.386;15.560;2022-11-20T04:27:03;2.50;;;2.10;;
10719;SDS011;5411;58.386;15.560;2022-11-20T04:29:31;2.03;;;1.83;;
10719;SDS011;5411;58.386;15.560;2022-11-20T04:32:00;2.40;;;2.20;;
10719;SDS011;5411;58.386;15.560;2022-11-20T04:34:28;2.37;;;2.17;;
10719;SDS011;5411;58.386;15.560;2022-11-20T04:36:58;3.30;;;2.10;;
10719;SDS011;5411;58.386;15.560;2022-11-20T04:39:27;1.97;;;1.80;;
10719;SDS011;5411;58.386;15.560;2022-11-20T04:41:55;2.50;;;2.30;;
10719;SDS011;5411;58.386;15.560;2022-11-20T04:44:37;4.33;;;2.17;;
10719;SDS011;5411;58.386;15.560;2022-11-20T04:47:05;2.50;;;2.30;;
10719;SDS011;5411;58.386;15.560;2022-11-20T04:49:33;2.03;;;1.87;;
10719;SDS011;5411;58.386;15.560;2022-11-20T04:52:03;1.77;;;1.67;;
10719;SDS011;5411;58.386;15.560;2022-11-20T04:54:36;2.83;;;1.90;;
10719;SDS011;5411;58.386;15.560;2022-11-20T04:57:05;1.60;;;1.50;;
10719;SDS011;5411;58.386;15.560;2022-11-20T04:59:39;2.73;;;2.30;;
10719;SDS011;5411;58.386;15.560;2022-11-20T05:02:08;2.00;;;1.80;;
10719;SDS011;5411;58.386;15.560;2022-11-20T05:04:36;2.43;;;2.00;;
10719;SDS011;5411;58.386;15.560;2022-11-20T05:07:06;3.13;;;2.37;;
10719;SDS011;5411;58.386;15.560;2022-11-20T05:09:34;3.40;;;2.47;;
10719;SDS011;5411;58.386;15.560;2022-11-20T05:12:02;2.30;;;1.87;;
10719;SDS011;5411;58.386;15.560;2022-11-20T05:14:31;3.40;;;2.30;;
10719;SDS011;5411;58.386;15.560;2022-11-20T05:16:59;2.20;;;2.00;;
10719;SDS011;5411;58.386;15.560;2022-11-20T05:19:27;2.30;;;1.90;;
10719;SDS011;5411;58.386;15.560;2022-11-20T05:21:55;2.60;;;2.40;;
10719;SDS011;5411;58.386;15.560;2022-11-20T05:24:24;1.97;;;1.77;;
10719;SDS011;5411;58.386;15.560;2022-11-20T05:26:52;2.90;;;2.60;;
10719;SDS011;5411;58.386;15.560;2022-11-20T05:29:20;2.37;;;1.90;;
10719;SDS011;5411;58.386;15.560;2022-11-20T05:31:48;2.53;;;2.33;;
10719;SDS011;5411;58.386;15.560;2022-11-20T05:34:16;2.70;;;1.80;;
10719;SDS011;5411;58.386;15.560;2022-11-20T05:36:45;2.20;;;2.00;;
10719;SDS011;5411;58.386;15.560;2022-11-20T05:39:14;2.67;;;2.13;;
10719;SDS011;5411;58.386;15.560;2022-11-20T05:41:44;2.87;;;2.57;;
10719;SDS011;5411;58.386;15.560;2022-11-20T05:44:36;3.80;;;1.77;;
10719;SDS011;5411;58.386;15.560;2022-11-20T05:47:04;2.20;;;2.00;;
10719;SDS011;5411;58.386;15.560;2022-11-20T05:49:32;3.00;;;2.20;;
10719;SDS011;5411;58.386;15.560;2022-11-20T05:52:00;2.33;;;2.13;;
10719;SDS011;5411;58.386;15.560;2022-11-20T05:54:28;2.27;;;1.73;;
10719;SDS011;5411;58.386;15.560;2022-11-20T05:56:58;2.50;;;2.23;;
10719;SDS011;5411;58.386;15.560;2022-11-20T05:59:26;2.43;;;2.20;;
10719;SDS011;5411;58.386;15.560;2022-11-20T06:01:54;2.60;;;2.40;;
10719;SDS011;5411;58.386;15.560;2022-11-20T06:04:22;1.93;;;1.83;;
10719;SDS011;5411;58.386;15.560;2022-11-20T06:06:50;2.27;;;1.90;;
10719;SDS011;5411;58.386;15.560;2022-11-20T06:09:18;2.00;;;1.90;;
10719;SDS011;5411;58.386;15.560;2022-11-20T06:11:47;2.10;;;1.90;;
10719;SDS011;5411;58.386;15.560;2022-11-20T06:14:16;2.03;;;1.73;;
10719;SDS011;5411;58.386;15.560;2022-11-20T06:16:44;3.20;;;1.90;;
10719;SDS011;5411;58.386;15.560;2022-11-20T06:19:12;1.80;;;1.70;;
10719;SDS011;5411;58.386;15.560;2022-11-20T06:21:41;2.90;;;2.20;;
10719;SDS011;5411;58.386;15.560;2022-11-20T06:24:09;2.70;;;1.90;;
10719;SDS011;5411;58.386;15.560;2022-11-20T06:26:38;2.40;;;2.20;;
10719;SDS011;5411;58.386;15.560;2022-11-20T06:29:06;3.40;;;2.10;;
10719;SDS011;5411;58.386;15.560;2022-11-20T06:31:36;2.63;;;1.90;;
10719;SDS011;5411;58.386;15.560;2022-11-20T06:34:04;1.97;;;1.83;;
10719;SDS011;5411;58.386;15.560;2022-11-20T06:36:32;2.07;;;1.87;;
10719;SDS011;5411;58.386;15.560;2022-11-20T06:39:02;2.80;;;1.83;;
10719;SDS011;5411;58.386;15.560;2022-11-20T06:41:31;1.60;;;1.50;;
10719;SDS011;5411;58.386;15.560;2022-11-20T06:43:59;1.90;;;1.80;;
10719;SDS011;5411;58.386;15.560;2022-11-20T06:46:27;2.83;;;1.67;;
10719;SDS011;5411;58.386;15.560;2022-11-20T06:48:56;2.30;;;2.10;;
10719;SDS011;5411;58.386;15.560;2022-11-20T06:51:24;2.47;;;2.10;;
10719;SDS011;5411;58.386;15.560;2022-11-20T06:53:52;2.17;;;1.97;;
10719;SDS011;5411;58.386;15.560;2022-11-20T06:56:20;2.40;;;1.80;;
10719;SDS011;5411;58.386;15.560;2022-11-20T06:58:49;2.73;;;1.90;;
10719;SDS011;5411;58.386;15.560;2022-11-20T07:01:17;2.13;;;1.87;;
10719;SDS011;5411;58.386;15.560;2022-11-20T07:03:45;1.70;;;1.60;;
10719;SDS011;5411;58.386;15.560;2022-11-20T07:06:21;1.80;;;1.70;;
10719;SDS011;5411;58.386;15.560;2022-11-20T07:08:49;2.37;;;1.90;;
10719;SDS011;5411;58.386;15.560;2022-11-20T07:11:18;1.60;;;1.50;;
10719;SDS011;5411;58.386;15.560;2022-11-20T07:13:47;2.30;;;2.20;;
10719;SDS011;5411;58.386;15.560;2022-11-20T07:16:15;4.30;;;1.90;;
10719;SDS011;5411;58.386;15.560;2022-11-20T07:18:43;2.00;;;1.90;;
10719;SDS011;5411;58.386;15.560;2022-11-20T07:21:16;1.87;;;1.77;;
10719;SDS011;5411;58.386;15.560;2022-11-20T07:23:45;2.67;;;1.90;;
10719;SDS011;5411;58.386;15.560;2022-11-20T07:26:14;1.87;;;1.63;;
10719;SDS011;5411;58.386;15.560;2022-11-20T07:28:43;1.77;;;1.67;;
10719;SDS011;5411;58.386;15.560;2022-11-20T07:31:12;2.03;;;1.83;;
10719;SDS011;5411;58.386;15.560;2022-11-20T07:33:45;1.80;;;1.70;;
10719;SDS011;5411;58.386;15.560;2022-11-20T07:36:13;1.93;;;1.63;;
10719;SDS011;5411;58.386;15.560;2022-11-20T07:38:46;2.10;;;1.90;;
10719;SDS011;5411;58.386;15.560;2022-11-20T07:41:14;1.90;;;1.50;;
10719;SDS011;5411;58.386;15.560;2022-11-20T07:43:42;2.00;;;1.80;;
10719;SDS011;5411;58.386;15.560;2022-11-20T07:46:10;2.20;;;2.00;;
10719;SDS011;5411;58.386;15.560;2022-11-20T07:48:38;2.10;;;1.90;;
10719;SDS011;5411;58.386;15.560;2022-11-20T07:51:07;1.77;;;1.67;;
10719;SDS011;5411;58.386;15.560;2022-11-20T07:53:35;2.10;;;1.70;;
10719;SDS011;5411;58.386;15.560;2022-11-20T07:56:05;2.13;;;1.93;;
10719;SDS011;5411;58.386;15.560;2022-11-20T07:58:35;2.17;;;1.70;;
10719;SDS011;5411;58.386;15.560;2022-11-20T08:01:03;1.70;;;1.47;;
10719;SDS011;5411;58.386;15.560;2022-11-20T08:03:32;1.53;;;1.43;;
10719;SDS011;5411;58.386;15.560;2022-11-20T08:06:01;2.13;;;1.83;;
10719;SDS011;5411;58.386;15.560;2022-11-20T08:08:29;2.10;;;1.90;;
10719;SDS011;5411;58.386;15.560;2022-11-20T08:11:00;1.97;;;1.87;;
10719;SDS011;5411;58.386;15.560;2022-11-20T08:13:43;1.97;;;1.80;;
10719;SDS011;5411;58.386;15.560;2022-11-20T08:16:29;1.37;;;1.27;;
10719;SDS011;5411;58.386;15.560;2022-11-20T08:18:57;2.10;;;1.60;;
10719;SDS011;5411;58.386;15.560;2022-11-20T08:21:25;1.60;;;1.50;;
10719;SDS011;5411;58.386;15.560;2022-11-20T08:23:53;2.10;;;1.90;;
10719;SDS011;5411;58.386;15.560;2022-11-20T08:26:22;2.03;;;1.63;;
10719;SDS011;5411;58.386;15.560;2022-11-20T08:28:54;3.03;;;1.83;;
10719;SDS011;5411;58.386;15.560;2022-11-20T08:31:24;1.70;;;1.60;;
10719;SDS011;5411;58.386;15.560;2022-11-20T08:33:53;1.97;;;1.63;;
10719;SDS011;5411;58.386;15.560;2022-11-20T08:36:22;1.90;;;1.80;;
10719;SDS011;5411;58.386;15.560;2022-11-20T08:38:52;1.77;;;1.60;;
10719;SDS011;5411;58.386;15.560;2022-11-20T08:41:22;1.80;;;1.53;;
10719;SDS011;5411;58.386;15.560;2022-11-20T08:43:59;2.83;;;1.67;;
10719;SDS011;5411;58.386;15.560;2022-11-20T08:46:31;1.70;;;1.60;;
10719;SDS011;5411;58.386;15.560;2022-11-20T08:49:01;1.70;;;1.60;;
10719;SDS011;5411;58.386;15.560;2022-11-20T08:51:30;2.40;;;2.07;;
10719;SDS011;5411;58.386;15.560;2022-11-20T08:53:58;1.90;;;1.80;;
10719;SDS011;5411;58.386;15.560;2022-11-20T08:56:26;3.07;;;2.07;;
10719;SDS011;5411;58.386;15.560;2022-11-20T08:58:55;1.80;;;1.70;;
10719;SDS011;5411;58.386;15.560;2022-11-20T09:01:44;1.73;;;1.63;;
10719;SDS011;5411;58.386;15.560;2022-11-20T09:04:12;3.40;;;1.70;;
10719;SDS011;5411;58.386;15.560;2022-11-20T09:06:41;1.50;;;1.40;;
10719;SDS011;5411;58.386;15.560;2022-11-20T09:09:09;1.90;;;1.70;;
10719;SDS011;5411;58.386;15.560;2022-11-20T09:11:37;2.20;;;1.90;;
10719;SDS011;5411;58.386;15.560;2022-11-20T09:14:05;1.93;;;1.73;;
10719;SDS011;5411;58.386;15.560;2022-11-20T09:16:33;1.70;;;1.60;;
10719;SDS011;5411;58.386;15.560;2022-11-20T09:19:03;1.87;;;1.77;;
10719;SDS011;5411;58.386;15.560;2022-11-20T09:21:51;1.90;;;1.80;;
10719;SDS011;5411;58.386;15.560;2022-11-20T09:24:25;1.80;;;1.43;;
10719;SDS011;5411;58.386;15.560;2022-11-20T09:26:54;1.70;;;1.60;;
10719;SDS011;5411;58.386;15.560;2022-11-20T09:29:22;1.80;;;1.70;;
10719;SDS011;5411;58.386;15.560;2022-11-20T09:31:50;1.40;;;1.30;;
10719;SDS011;5411;58.386;15.560;2022-11-20T09:34:19;1.77;;;1.67;;
10719;SDS011;5411;58.386;15.560;2022-11-20T09:36:49;2.00;;;1.90;;
10719;SDS011;5411;58.386;15.560;2022-11-20T09:39:16;1.60;;;1.50;;
10719;SDS011;5411;58.386;15.560;2022-11-20T09:41:49;1.87;;;1.77;;
10719;SDS011;5411;58.386;15.560;2022-11-20T09:44:30;1.53;;;1.43;;
10719;SDS011;5411;58.386;15.560;2022-11-20T09:47:18;1.40;;;1.30;;
10719;SDS011;5411;58.386;15.560;2022-11-20T09:49:59;1.50;;;1.40;;
10719;SDS011;5411;58.386;15.560;2022-11-20T09:52:46;1.80;;;1.70;;
10719;SDS011;5411;58.386;15.560;2022-11-20T09:55:22;2.20;;;1.60;;
10719;SDS011;5411;58.386;15.560;2022-11-20T09:57:51;1.50;;;1.40;;
10719;SDS011;5411;58.386;15.560;2022-11-20T10:00:20;1.50;;;1.40;;
10719;SDS011;5411;58.386;15.560;2022-11-20T10:02:51;1.70;;;1.60;;
10719;SDS011;5411;58.386;15.560;2022-11-20T10:05:24;1.90;;;1.70;;
10719;SDS011;5411;58.386;15.560;2022-11-20T10:07:59;1.50;;;1.40;;
10719;SDS011;5411;58.386;15.560;2022-11-20T10:10:40;2.13;;;1.73;;
10719;SDS011;5411;58.386;15.560;2022-11-20T10:13:20;1.60;;;1.50;;
10719;SDS011;5411;58.386;15.560;2022-11-20T10:16:02;1.53;;;1.43;;
10719;SDS011;5411;58.386;15.560;2022-11-20T10:18:41;1.53;;;1.43;;
10719;SDS011;5411;58.386;15.560;2022-11-20T10:21:23;2.80;;;1.50;;
10719;SDS011;5411;58.386;15.560;2022-11-20T10:23:59;2.70;;;1.83;;
10719;SDS011;5411;58.386;15.560;2022-11-20T10:26:47;2.47;;;1.90;;
10719;SDS011;5411;58.386;15.560;2022-11-20T10:29:25;1.57;;;1.47;;
10719;SDS011;5411;58.386;15.560;2022-11-20T10:32:01;1.80;;;1.63;;
10719;SDS011;5411;58.386;15.560;2022-11-20T10:34:33;1.20;;;1.10;;
10719;SDS011;5411;58.386;15.560;2022-11-20T10:37:11;2.03;;;1.50;;
10719;SDS011;5411;58.386;15.560;2022-11-20T10:39:45;1.93;;;1.77;;
10719;SDS011;5411;58.386;15.560;2022-11-20T10:42:22;2.13;;;1.90;;
10719;SDS011;5411;58.386;15.560;2022-11-20T10:44:58;1.73;;;1.37;;
10719;SDS011;5411;58.386;15.560;2022-11-20T10:47:37;1.43;;;1.33;;
10719;SDS011;5411;58.386;15.560;2022-11-20T10:50:05;1.80;;;1.70;;
10719;SDS011;5411;58.386;15.560;2022-11-20T10:52:48;1.80;;;1.70;;
10719;SDS011;5411;58.386;15.560;2022-11-20T10:55:27;1.77;;;1.63;;
10719;SDS011;5411;58.386;15.560;2022-11-20T10:58:03;1.80;;;1.70;;
10719;SDS011;5411;58.386;15.560;2022-11-20T11:00:37;2.20;;;2.00;;
10719;SDS011;5411;58.386;15.560;2022-11-20T11:03:11;1.90;;;1.43;;
10719;SDS011;5411;58.386;15.560;2022-11-20T11:05:50;1.73;;;1.63;;
10719;SDS011;5411;58.386;15.560;2022-11-20T11:08:23;1.40;;;1.30;;
10719;SDS011;5411;58.386;15.560;2022-11-20T11:10:57;1.47;;;1.37;;
10719;SDS011;5411;58.386;15.560;2022-11-20T11:13:28;1.77;;;1.50;;
10719;SDS011;5411;58.386;15.560;2022-11-20T11:15:58;2.07;;;1.70;;
10719;SDS011;5411;58.386;15.560;2022-11-20T11:18:27;1.57;;;1.47;;
10719;SDS011;5411;58.386;15.560;2022-11-20T11:20:56;3.00;;;1.80;;
10719;SDS011;5411;58.386;15.560;2022-11-20T11:23:31;2.00;;;1.73;;
10719;SDS011;5411;58.386;15.560;2022-11-20T11:26:02;1.70;;;1.60;;
10719;SDS011;5411;58.386;15.560;2022-11-20T11:28:32;2.70;;;1.30;;
10719;SDS011;5411;58.386;15.560;2022-11-20T11:31:00;1.53;;;1.40;;
10719;SDS011;5411;58.386;15.560;2022-11-20T11:33:29;1.50;;;1.40;;
10719;SDS011;5411;58.386;15.560;2022-11-20T11:36:00;2.30;;;1.73;;
10719;SDS011;5411;58.386;15.560;2022-11-20T11:38:34;2.60;;;1.80;;
10719;SDS011;5411;58.386;15.560;2022-11-20T11:41:15;2.20;;;2.10;;
10719;SDS011;5411;58.386;15.560;2022-11-20T11:43:50;1.40;;;1.30;;
10719;SDS011;5411;58.386;15.560;2022-11-20T11:46:37;1.63;;;1.53;;
10719;SDS011;5411;58.386;15.560;2022-11-20T11:49:14;1.93;;;1.67;;
10719;SDS011;5411;58.386;15.560;2022-11-20T11:51:52;1.60;;;1.37;;
10719;SDS011;5411;58.386;15.560;2022-11-20T11:54:34;1.50;;;1.40;;
10719;SDS011;5411;58.386;15.560;2022-11-20T11:57:14;2.27;;;1.80;;
10719;SDS011;5411;58.386;15.560;2022-11-20T11:59:56;1.60;;;1.50;;
10719;SDS011;5411;58.386;15.560;2022-11-20T12:02:32;1.43;;;1.23;;
10719;SDS011;5411;58.386;15.560;2022-11-20T12:05:09;1.83;;;1.70;;
10719;SDS011;5411;58.386;15.560;2022-11-20T12:07:46;1.40;;;1.30;;
10719;SDS011;5411;58.386;15.560;2022-11-20T12:10:19;1.43;;;1.33;;
10719;SDS011;5411;58.386;15.560;2022-11-20T12:12:52;1.77;;;1.20;;
10719;SDS011;5411;58.386;15.560;2022-11-20T12:15:28;1.80;;;1.70;;
10719;SDS011;5411;58.386;15.560;2022-11-20T12:17:58;1.43;;;1.33;;
10719;SDS011;5411;58.386;15.560;2022-11-20T12:20:29;1.60;;;1.50;;
10719;SDS011;5411;58.386;15.560;2022-11-20T12:23:05;1.60;;;1.50;;
10719;SDS011;5411;58.386;15.560;2022-11-20T12:25:42;1.50;;;1.40;;
10719;SDS011;5411;58.386;15.560;2022-11-20T12:28:23;2.00;;;1.90;;
10719;SDS011;5411;58.386;15.560;2022-11-20T12:31:09;1.53;;;1.43;;
10719;SDS011;5411;58.386;15.560;2022-11-20T12:33:53;1.50;;;1.40;;
10719;SDS011;5411;58.386;15.560;2022-11-20T12:36:34;1.70;;;1.60;;
10719;SDS011;5411;58.386;15.560;2022-11-20T12:39:20;1.30;;;1.20;;
10719;SDS011;5411;58.386;15.560;2022-11-20T12:42:03;1.47;;;1.37;;
10719;SDS011;5411;58.386;15.560;2022-11-20T12:45:29;1.60;;;1.50;;
10719;SDS011;5411;58.386;15.560;2022-11-20T12:57:21;1.40;;;1.30;;
10719;SDS011;5411;58.386;15.560;2022-11-20T13:00:00;2.67;;;1.33;;
10719;SDS011;5411;58.386;15.560;2022-11-20T13:02:39;1.60;;;1.33;;
10719;SDS011;5411;58.386;15.560;2022-11-20T13:05:19;1.53;;;1.43;;
10719;SDS011;5411;58.386;15.560;2022-11-20T13:07:52;1.10;;;1.10;;
10719;SDS011;5411;58.386;15.560;2022-11-20T13:10:23;1.67;;;1.57;;
10719;SDS011;5411;58.386;15.560;2022-11-20T13:13:01;1.13;;;1.03;;
10719;SDS011;5411;58.386;15.560;2022-11-20T13:15:42;1.97;;;1.40;;
10719;SDS011;5411;58.386;15.560;2022-11-20T13:18:18;1.70;;;1.60;;
10719;SDS011;5411;58.386;15.560;2022-11-20T13:20:47;1.50;;;1.40;;
10719;SDS011;5411;58.386;15.560;2022-11-20T13:23:25;1.47;;;1.37;;
10719;SDS011;5411;58.386;15.560;2022-11-20T13:26:05;2.50;;;1.27;;
10719;SDS011;5411;58.386;15.560;2022-11-20T13:28:42;1.40;;;1.20;;
10719;SDS011;5411;58.386;15.560;2022-11-20T13:31:23;1.40;;;1.30;;
10719;SDS011;5411;58.386;15.560;2022-11-20T13:33:57;1.30;;;1.20;;
10719;SDS011;5411;58.386;15.560;2022-11-20T13:36:29;1.40;;;1.30;;
10719;SDS011;5411;58.386;15.560;2022-11-20T13:38:58;1.30;;;1.20;;
10719;SDS011;5411;58.386;15.560;2022-11-20T13:41:27;1.40;;;1.30;;
10719;SDS011;5411;58.386;15.560;2022-11-20T13:44:04;1.00;;;1.00;;
10719;SDS011;5411;58.386;15.560;2022-11-20T13:46:38;1.63;;;1.53;;
10719;SDS011;5411;58.386;15.560;2022-11-20T13:49:10;1.07;;;1.07;;
10719;SDS011;5411;58.386;15.560;2022-11-20T13:51:46;1.00;;;1.00;;
10719;SDS011;5411;58.386;15.560;2022-11-20T13:54:44;1.20;;;1.10;;
10719;SDS011;5411;58.386;15.560;2022-11-20T14:00:25;1.20;;;1.10;;
10719;SDS011;5411;58.386;15.560;2022-11-20T14:03:05;1.10;;;1.10;;
10719;SDS011;5411;58.386;15.560;2022-11-20T14:05:39;1.30;;;1.20;;
10719;SDS011;5411;58.386;15.560;2022-11-20T14:08:19;1.20;;;1.10;;
10719;SDS011;5411;58.386;15.560;2022-11-20T14:11:02;1.47;;;1.37;;
10719;SDS011;5411;58.386;15.560;2022-11-20T14:13:31;1.10;;;1.07;;
10719;SDS011;5411;58.386;15.560;2022-11-20T14:16:00;1.20;;;1.10;;
10719;SDS011;5411;58.386;15.560;2022-11-20T14:18:28;1.97;;;1.27;;
10719;SDS011;5411;58.386;15.560;2022-11-20T14:20:59;1.93;;;1.07;;
10719;SDS011;5411;58.386;15.560;2022-11-20T14:23:28;1.27;;;1.17;;
10719;SDS011;5411;58.386;15.560;2022-11-20T14:25:57;1.43;;;1.10;;
10719;SDS011;5411;58.386;15.560;2022-11-20T14:28:26;1.10;;;1.00;;
10719;SDS011;5411;58.386;15.560;2022-11-20T14:30:55;1.77;;;1.10;;
10719;SDS011;5411;58.386;15.560;2022-11-20T14:33:26;1.20;;;1.10;;
10719;SDS011;5411;58.386;15.560;2022-11-20T14:35:55;0.90;;;0.90;;
10719;SDS011;5411;58.386;15.560;2022-11-20T14:38:26;1.30;;;1.17;;
10719;SDS011;5411;58.386;15.560;2022-11-20T14:41:05;1.33;;;1.23;;
10719;SDS011;5411;58.386;15.560;2022-11-20T14:43:33;1.33;;;1.23;;
10719;SDS011;5411;58.386;15.560;2022-11-20T14:46:13;3.60;;;1.30;;
10719;SDS011;5411;58.386;15.560;2022-11-20T14:48:48;1.17;;;1.07;;
10719;SDS011;5411;58.386;15.560;2022-11-20T14:51:30;1.70;;;1.60;;
10719;SDS011;5411;58.386;15.560;2022-11-20T14:54:10;1.30;;;1.20;;
10719;SDS011;5411;58.386;15.560;2022-11-20T14:56:38;1.00;;;1.00;;
10719;SDS011;5411;58.386;15.560;2022-11-20T14:59:07;1.53;;;1.33;;
10719;SDS011;5411;58.386;15.560;2022-11-20T15:01:35;1.27;;;1.17;;
10719;SDS011;5411;58.386;15.560;2022-11-20T15:04:07;1.67;;;1.40;;
10719;SDS011;5411;58.386;15.560;2022-11-20T15:06:37;1.47;;;1.00;;
10719;SDS011;5411;58.386;15.560;2022-11-20T15:09:16;0.73;;;0.73;;
10719;SDS011;5411;58.386;15.560;2022-11-20T15:11:51;0.90;;;0.90;;
10719;SDS011;5411;58.386;15.560;2022-11-20T15:14:21;2.97;;;1.50;;
10719;SDS011;5411;58.386;15.560;2022-11-20T15:16:51;1.50;;;1.00;;
10719;SDS011;5411;58.386;15.560;2022-11-20T15:19:22;1.13;;;1.13;;
10719;SDS011;5411;58.386;15.560;2022-11-20T15:21:51;1.50;;;1.40;;
10719;SDS011;5411;58.386;15.560;2022-11-20T15:24:20;1.10;;;1.10;;
10719;SDS011;5411;58.386;15.560;2022-11-20T15:26:48;1.33;;;1.20;;
10719;SDS011;5411;58.386;15.560;2022-11-20T15:29:16;0.90;;;0.90;;